createdAt,value
2023-04-01T00:01:14.969Z,11.59
2023-04-01T00:03:42.244Z,11.69
2023-04-01T00:06:11.180Z,11.89
2023-04-01T00:08:37.791Z,12.57
2023-04-01T00:11:04.438Z,12.56
2023-04-01T00:13:31.269Z,11.83
2023-04-01T00:16:00.173Z,11.65
2023-04-01T00:18:27.251Z,11.26
2023-04-01T00:20:54.332Z,10.66
2023-04-01T00:23:21.879Z,10.44
2023-04-01T00:25:50.417Z,11.19
2023-04-01T00:28:18.971Z,11.26
2023-04-01T00:30:46.061Z,10.91
2023-04-01T00:33:13.064Z,11.80
2023-04-01T00:35:39.697Z,11.54
2023-04-01T00:38:07.653Z,11.60
2023-04-01T00:40:37.881Z,10.74
2023-04-01T00:43:21.366Z,11.04
2023-04-01T00:45:50.984Z,11.29
2023-04-01T00:48:23.924Z,12.06
2023-04-01T00:51:00.373Z,12.14
2023-04-01T00:53:30.623Z,12.64
2023-04-01T00:56:27.784Z,13.23
2023-04-01T00:59:17.064Z,12.04
2023-04-01T01:01:43.785Z,12.19
2023-04-01T01:04:32.157Z,12.42
2023-04-01T01:07:07.746Z,12.09
2023-04-01T01:09:53.089Z,11.81
2023-04-01T01:12:55.549Z,12.22
2023-04-01T01:15:34.347Z,12.41
2023-04-01T01:18:06.236Z,12.34
2023-04-01T01:20:47.456Z,12.46
2023-04-01T01:23:55.819Z,13.20
2023-04-01T01:26:50.106Z,12.76
2023-04-01T01:29:54.107Z,11.88
2023-04-01T01:32:31.016Z,13.15
2023-04-01T01:35:24.920Z,12.39
2023-04-01T01:38:00.622Z,11.87
2023-04-01T01:40:29.921Z,12.06
2023-04-01T01:43:04.665Z,10.30
2023-04-01T01:45:36.074Z,9.00
2023-04-01T01:48:06.298Z,7.97
2023-04-01T01:50:34.345Z,7.00
2023-04-01T01:53:03.489Z,7.04
2023-04-01T01:55:37.224Z,6.46
2023-04-01T01:58:24.293Z,5.97
2023-04-01T02:00:56.808Z,5.51
2023-04-01T02:03:27.465Z,6.12
2023-04-01T02:05:58.685Z,5.80
2023-04-01T02:08:48.020Z,5.65
2023-04-01T02:11:21.025Z,5.26
2023-04-01T02:14:02.297Z,5.11
2023-04-01T02:16:35.753Z,5.02
2023-04-01T02:19:08.408Z,4.68
2023-04-01T02:21:36.767Z,4.27
2023-04-01T02:24:10.700Z,4.44
2023-04-01T02:26:37.517Z,4.41
2023-04-01T02:29:09.242Z,4.31
2023-04-01T02:31:36.909Z,4.52
2023-04-01T02:34:04.829Z,4.50
2023-04-01T02:36:33.228Z,4.55
2023-04-01T02:39:03.396Z,5.04
2023-04-01T02:41:30.162Z,4.84
2023-04-01T02:43:58.359Z,4.89
2023-04-01T02:46:25.705Z,5.04
2023-04-01T02:48:52.292Z,5.29
2023-04-01T02:51:18.861Z,5.52
2023-04-01T02:53:45.483Z,5.31
2023-04-01T02:56:12.048Z,5.10
2023-04-01T02:58:38.607Z,5.78
2023-04-01T03:01:05.319Z,5.10
2023-04-01T03:03:32.084Z,5.43
2023-04-01T03:06:01.097Z,5.44
2023-04-01T03:08:27.643Z,4.59
2023-04-01T03:10:54.241Z,4.78
2023-04-01T03:13:21.018Z,4.37
2023-04-01T03:15:47.618Z,4.06
2023-04-01T03:18:14.316Z,4.16
2023-04-01T03:20:40.915Z,4.12
2023-04-01T03:23:09.057Z,3.75
2023-04-01T03:25:36.333Z,3.67
2023-04-01T03:28:03.572Z,3.75
2023-04-01T03:30:33.328Z,3.52
2023-04-01T03:33:01.113Z,3.85
2023-04-01T03:35:28.143Z,4.09
2023-04-01T03:37:55.218Z,4.55
2023-04-01T03:40:23.015Z,4.90
2023-04-01T03:42:50.976Z,5.14
2023-04-01T03:45:17.644Z,5.53
2023-04-01T03:47:44.265Z,5.62
2023-04-01T03:50:11.527Z,5.61
2023-04-01T03:52:38.232Z,6.03
2023-04-01T03:55:05.175Z,6.08
2023-04-01T03:57:32.897Z,6.14
2023-04-01T03:59:59.609Z,6.72
2023-04-01T04:02:26.277Z,6.76
2023-04-01T04:04:52.956Z,6.78
2023-04-01T04:07:19.512Z,7.09
2023-04-01T04:09:46.105Z,7.48
2023-04-01T04:12:13.347Z,7.29
2023-04-01T04:14:40.077Z,7.47
2023-04-01T04:17:07.050Z,7.35
2023-04-01T04:19:34.904Z,7.48
2023-04-01T04:22:02.397Z,7.00
2023-04-01T04:24:29.128Z,6.77
2023-04-01T04:26:55.752Z,6.68
2023-04-01T04:29:23.764Z,6.52
2023-04-01T04:31:50.370Z,6.64
2023-04-01T04:34:17.202Z,6.86
2023-04-01T04:36:43.935Z,6.64
2023-04-01T04:39:10.675Z,6.85
2023-04-01T04:41:40.110Z,6.70
2023-04-01T04:44:06.820Z,6.77
2023-04-01T04:46:33.516Z,7.17
2023-04-01T04:49:00.614Z,7.08
2023-04-01T04:51:27.284Z,7.11
2023-04-01T04:53:54.002Z,6.65
2023-04-01T04:56:22.179Z,6.47
2023-04-01T04:58:49.337Z,6.47
2023-04-01T05:01:17.825Z,6.18
2023-04-01T05:03:44.984Z,5.53
2023-04-01T05:06:14.604Z,5.09
2023-04-01T05:08:42.649Z,5.03
2023-04-01T05:11:19.695Z,5.11
2023-04-01T05:13:46.833Z,5.15
2023-04-01T05:16:19.381Z,5.28
2023-04-01T05:18:47.214Z,5.85
2023-04-01T05:21:15.940Z,5.93
2023-04-01T05:23:43.578Z,6.88
2023-04-01T05:26:14.373Z,7.15
2023-04-01T05:28:41.444Z,7.15
2023-04-01T05:31:09.595Z,7.04
2023-04-01T05:33:36.696Z,6.86
2023-04-01T05:36:12.834Z,7.02
2023-04-01T05:38:39.835Z,6.44
2023-04-01T05:41:06.877Z,6.27
2023-04-01T05:43:33.502Z,6.06
2023-04-01T05:46:00.274Z,5.54
2023-04-01T05:48:26.846Z,5.09
2023-04-01T05:50:53.413Z,5.16
2023-04-01T05:53:20.087Z,4.85
2023-04-01T05:55:46.818Z,4.48
2023-04-01T05:58:13.384Z,4.42
2023-04-01T06:00:40.264Z,4.45
2023-04-01T06:03:07.075Z,4.25
2023-04-01T06:05:43.017Z,3.94
2023-04-01T06:08:20.379Z,4.02
2023-04-01T06:11:08.533Z,4.21
2023-04-01T06:13:58.488Z,4.20
2023-04-01T06:16:48.049Z,4.15
2023-04-01T06:19:26.572Z,4.22
2023-04-01T06:22:14.520Z,4.05
2023-04-01T06:25:06.735Z,4.44
2023-04-01T06:27:42.456Z,4.59
2023-04-01T06:30:32.428Z,4.70
2023-04-01T06:33:31.191Z,4.40
2023-04-01T06:36:19.519Z,4.47
2023-04-01T06:39:11.313Z,4.26
2023-04-01T06:41:51.157Z,4.22
2023-04-01T06:44:19.932Z,4.17
2023-04-01T06:47:00.267Z,4.05
2023-04-01T06:49:42.248Z,3.63
2023-04-01T06:52:24.717Z,3.93
2023-04-01T06:55:04.755Z,3.48
2023-04-01T06:57:55.971Z,3.44
2023-04-01T07:00:43.645Z,3.29
2023-04-01T07:03:41.097Z,3.16
2023-04-01T07:06:24.492Z,3.00
2023-04-01T07:08:55.652Z,2.87
2023-04-01T07:11:32.345Z,2.96
2023-04-01T07:14:25.396Z,3.39
2023-04-01T07:17:01.204Z,3.31
2023-04-01T07:19:43.097Z,3.66
2023-04-01T07:22:32.333Z,3.73
2023-04-01T07:25:06.226Z,4.22
2023-04-01T07:27:33.279Z,4.27
2023-04-01T07:30:02.407Z,4.50
2023-04-01T07:32:43.796Z,4.76
2023-04-01T07:35:18.476Z,4.74
2023-04-01T07:38:04.503Z,4.48
2023-04-01T07:41:01.444Z,4.47
2023-04-01T07:43:39.212Z,4.28
2023-04-01T07:46:14.608Z,4.24
2023-04-01T07:49:12.297Z,4.55
2023-04-01T07:51:46.637Z,4.69
2023-04-01T07:54:27.308Z,4.79
2023-04-01T07:57:10.797Z,4.74
2023-04-01T07:59:55.904Z,4.82
2023-04-01T08:02:43.604Z,5.08
2023-04-01T08:05:30.049Z,5.16
2023-04-01T08:08:21.158Z,5.37
2023-04-01T08:11:06.983Z,5.47
2023-04-01T08:13:58.256Z,5.42
2023-04-01T08:16:42.681Z,5.55
2023-04-01T08:19:18.164Z,5.53
2023-04-01T08:21:59.140Z,5.69
2023-04-01T08:24:47.628Z,6.10
2023-04-01T08:27:35.065Z,5.76
2023-04-01T08:30:24.935Z,5.80
2023-04-01T08:33:04.652Z,5.82
2023-04-01T08:35:39.851Z,6.12
2023-04-01T08:38:15.063Z,5.51
2023-04-01T08:40:56.888Z,5.67
2023-04-01T08:43:56.033Z,5.90
2023-04-01T08:46:37.476Z,6.16
2023-04-01T08:49:11.681Z,5.92
2023-04-01T08:52:10.778Z,6.16
2023-04-01T08:55:12.508Z,5.93
2023-04-01T08:57:42.044Z,5.84
2023-04-01T09:00:31.905Z,5.66
2023-04-01T09:03:36.252Z,5.97
2023-04-01T09:06:30.954Z,5.86
2023-04-01T09:09:26.421Z,5.81
2023-04-01T09:11:59.197Z,5.62
2023-04-01T09:14:39.302Z,5.38
2023-04-01T09:17:27.379Z,4.88
2023-04-01T09:20:03.944Z,4.40
2023-04-01T09:22:53.772Z,4.30
2023-04-01T09:25:50.900Z,4.48
2023-04-01T09:28:28.479Z,4.16
2023-04-01T09:31:30.520Z,4.73
2023-04-01T09:34:16.059Z,4.66
2023-04-01T09:37:19.152Z,5.05
2023-04-01T09:40:16.948Z,5.33
2023-04-01T09:42:52.609Z,5.51
2023-04-01T09:45:19.321Z,5.72
2023-04-01T09:48:16.015Z,6.05
2023-04-01T09:51:11.773Z,6.29
2023-04-01T09:54:06.803Z,6.17
2023-04-01T09:56:51.507Z,6.37
2023-04-01T09:59:39.574Z,6.94
2023-04-01T10:02:31.452Z,7.40
2023-04-01T10:05:16.861Z,8.16
2023-04-01T10:08:16.609Z,8.37
2023-04-01T10:10:59.760Z,8.46
2023-04-01T10:13:47.509Z,8.48
2023-04-01T10:16:41.414Z,7.58
2023-04-01T10:19:52.900Z,7.95
2023-04-01T10:22:22.136Z,8.11
2023-04-01T10:24:54.674Z,8.06
2023-04-01T10:28:04.139Z,7.87
2023-04-01T10:30:53.878Z,7.88
2023-04-01T10:33:39.069Z,7.81
2023-04-01T10:36:43.345Z,7.62
2023-04-01T10:39:34.203Z,7.32
2023-04-01T10:42:28.651Z,7.88
2023-04-01T10:45:31.822Z,7.79
2023-04-01T10:48:29.669Z,7.93
2023-04-01T10:51:36.051Z,7.43
2023-04-01T10:54:31.518Z,7.00
2023-04-01T10:57:10.459Z,6.45
2023-04-01T10:59:52.110Z,6.38
2023-04-01T11:02:24.442Z,6.44
2023-04-01T11:05:38.566Z,6.45
2023-04-01T11:08:40.470Z,5.86
2023-04-01T11:11:22.479Z,5.83
2023-04-01T11:14:07.338Z,4.87
2023-04-01T11:16:40.016Z,3.46
2023-04-01T11:19:28.417Z,2.71
2023-04-01T11:22:14.658Z,2.64
2023-04-01T11:25:00.020Z,2.61
2023-04-01T11:28:00.743Z,2.58
2023-04-01T11:30:54.673Z,3.18
2023-04-01T11:33:32.695Z,3.21
2023-04-01T11:36:16.338Z,3.12
2023-04-01T11:39:04.293Z,3.14
2023-04-01T11:41:52.434Z,3.21
2023-04-01T11:44:23.601Z,2.98
2023-04-01T11:47:01.297Z,2.25
2023-04-01T11:49:37.683Z,2.13
2023-04-01T11:52:20.566Z,1.73
2023-04-01T11:54:47.146Z,1.91
2023-04-01T11:57:38.467Z,1.83
2023-04-01T12:00:42.379Z,2.04
2023-04-01T12:03:37.141Z,3.14
2023-04-01T12:06:32.517Z,3.21
2023-04-01T12:09:12.943Z,4.31
2023-04-01T12:11:42.479Z,4.19
2023-04-01T12:14:18.074Z,4.58
2023-04-01T12:17:04.940Z,5.21
2023-04-01T12:20:05.908Z,5.63
2023-04-01T12:22:42.248Z,5.69
2023-04-01T12:25:47.312Z,5.94
2023-04-01T12:28:32.689Z,6.15
2023-04-01T12:31:24.872Z,6.74
2023-04-01T12:34:21.241Z,7.93
2023-04-01T12:37:06.096Z,8.64
2023-04-01T12:40:09.878Z,8.82
2023-04-01T12:42:51.678Z,9.68
2023-04-01T12:45:50.876Z,9.82
2023-04-01T12:49:00.659Z,10.12
2023-04-01T12:51:30.187Z,10.92
2023-04-01T12:53:56.722Z,10.80
2023-04-01T12:56:46.992Z,10.81
2023-04-01T12:59:36.792Z,10.41
2023-04-01T13:02:14.817Z,10.70
2023-04-01T13:04:50.768Z,10.80
2023-04-01T13:07:41.661Z,10.49
2023-04-01T13:10:25.162Z,10.42
2023-04-01T13:13:29.918Z,10.12
2023-04-01T13:16:16.422Z,9.41
2023-04-01T13:18:56.894Z,8.88
2023-04-01T13:21:40.744Z,7.36
2023-04-01T13:24:19.236Z,6.60
2023-04-01T13:26:59.478Z,7.32
2023-04-01T13:29:44.988Z,7.33
2023-04-01T13:32:30.324Z,6.77
2023-04-01T13:35:36.332Z,7.19
2023-04-01T13:38:40.518Z,6.87
2023-04-01T13:41:33.423Z,7.01
2023-04-01T13:44:28.094Z,6.72
2023-04-01T13:47:28.669Z,5.30
2023-04-01T13:50:32.383Z,4.69
2023-04-01T13:53:22.520Z,4.79
2023-04-01T13:56:01.142Z,4.81
2023-04-01T13:58:52.738Z,4.56
2023-04-01T14:01:38.018Z,4.74
2023-04-01T14:04:22.685Z,4.66
2023-04-01T14:07:06.582Z,4.84
2023-04-01T14:09:48.510Z,4.76
2023-04-01T14:12:30.617Z,5.29
2023-04-01T14:15:11.112Z,5.68
2023-04-01T14:17:54.638Z,6.65
2023-04-01T14:20:41.752Z,6.45
2023-04-01T14:23:22.860Z,6.43
2023-04-01T14:26:26.316Z,6.22
2023-04-01T14:29:17.563Z,6.21
2023-04-01T14:31:59.126Z,5.96
2023-04-01T14:35:13.483Z,5.80
2023-04-01T14:37:48.802Z,5.53
2023-04-01T14:40:27.397Z,5.48
2023-04-01T14:43:23.220Z,5.32
2023-04-01T14:46:09.368Z,5.27
2023-04-01T14:48:40.271Z,5.30
2023-04-01T14:51:31.196Z,5.53
2023-04-01T14:54:06.487Z,5.37
2023-04-01T14:56:44.260Z,5.37
2023-04-01T14:59:23.877Z,5.64
2023-04-01T15:02:12.104Z,5.55
2023-04-01T15:04:56.902Z,5.81
2023-04-01T15:07:54.653Z,5.70
2023-04-01T15:10:32.256Z,5.92
2023-04-01T15:13:17.333Z,5.89
2023-04-01T15:16:11.405Z,5.45
2023-04-01T15:18:59.933Z,5.70
2023-04-01T15:21:49.780Z,5.85
2023-04-01T15:24:26.777Z,5.57
2023-04-01T15:27:14.198Z,5.53
2023-04-01T15:30:21.879Z,5.31
2023-04-01T15:32:59.107Z,4.98
2023-04-01T15:35:51.821Z,5.69
2023-04-01T15:38:36.893Z,5.24
2023-04-01T15:41:09.892Z,5.47
2023-04-01T15:43:52.923Z,5.05
2023-04-01T15:46:29.938Z,4.92
2023-04-01T15:49:07.386Z,4.90
2023-04-01T15:51:57.467Z,4.62
2023-04-01T15:55:07.593Z,4.49
2023-04-01T15:57:41.571Z,4.21
2023-04-01T16:00:14.392Z,3.97
2023-04-01T16:02:49.830Z,4.07
2023-04-01T16:05:43.900Z,3.91
2023-04-01T16:08:34.043Z,4.34
2023-04-01T16:11:10.932Z,4.63
2023-04-01T16:14:05.728Z,4.65
2023-04-01T16:16:43.782Z,4.90
2023-04-01T16:19:11.282Z,5.19
2023-04-01T16:22:05.874Z,5.28
2023-04-01T16:25:00.280Z,5.29
2023-04-01T16:27:48.879Z,4.50
2023-04-01T16:30:24.595Z,4.63
2023-04-01T16:33:03.182Z,4.45
2023-04-01T16:35:38.197Z,4.81
2023-04-01T16:38:32.780Z,5.14
2023-04-01T16:41:17.232Z,5.63
2023-04-01T16:43:49.471Z,6.28
2023-04-01T16:46:41.547Z,6.25
2023-04-01T16:49:32.636Z,6.16
2023-04-01T16:52:11.842Z,6.05
2023-04-01T16:54:49.068Z,6.55
2023-04-01T16:57:26.392Z,6.62
2023-04-01T17:00:24.387Z,6.11
2023-04-01T17:03:03.314Z,5.92
2023-04-01T17:06:00.679Z,5.76
2023-04-01T17:08:36.148Z,5.68
2023-04-01T17:11:19.776Z,6.04
2023-04-01T17:13:49.793Z,5.58
2023-04-01T17:16:27.556Z,5.31
2023-04-01T17:19:06.098Z,5.59
2023-04-01T17:21:54.436Z,5.68
2023-04-01T17:24:54.423Z,5.72
2023-04-01T17:27:24.054Z,5.75
2023-04-01T17:30:26.492Z,5.60
2023-04-01T17:33:26.551Z,6.08
2023-04-01T17:36:25.247Z,5.75
2023-04-01T17:39:06.549Z,5.30
2023-04-01T17:41:52.747Z,5.10
2023-04-01T17:44:52.631Z,5.83
2023-04-01T17:47:34.079Z,5.64
2023-04-01T17:50:21.693Z,5.18
2023-04-01T17:52:57.464Z,5.39
2023-04-01T17:56:11.586Z,5.34
2023-04-01T17:58:48.764Z,5.89
2023-04-01T18:01:27.275Z,5.66
2023-04-01T18:04:12.164Z,5.73
2023-04-01T18:06:57.524Z,5.96
2023-04-01T18:09:53.501Z,5.88
2023-04-01T18:12:54.094Z,6.02
2023-04-01T18:15:45.952Z,6.39
2023-04-01T18:18:12.734Z,6.27
2023-04-01T18:21:01.474Z,6.30
2023-04-01T18:23:46.674Z,6.43
2023-04-01T18:26:28.164Z,6.78
2023-04-01T18:29:11.787Z,6.95
2023-04-01T18:31:44.752Z,6.74
2023-04-01T18:34:21.479Z,7.02
2023-04-01T18:37:17.560Z,7.19
2023-04-01T18:39:54.894Z,7.16
2023-04-01T18:42:24.260Z,7.18
2023-04-01T18:45:10.957Z,7.52
2023-04-01T18:47:46.696Z,7.42
2023-04-01T18:50:48.384Z,7.27
2023-04-01T18:53:42.983Z,7.83
2023-04-01T18:56:27.502Z,7.52
2023-04-01T18:59:28.237Z,6.99
2023-04-01T19:02:19.163Z,7.11
2023-04-01T19:05:06.823Z,7.29
2023-04-01T19:07:53.495Z,7.29
2023-04-01T19:10:32.009Z,7.31
2023-04-01T19:13:23.735Z,6.86
2023-04-01T19:16:01.257Z,6.85
2023-04-01T19:18:44.993Z,6.85
2023-04-01T19:21:23.203Z,6.80
2023-04-01T19:23:55.585Z,6.66
2023-04-01T19:26:29.062Z,7.00
2023-04-01T19:28:58.239Z,6.84
2023-04-01T19:31:56.584Z,7.04
2023-04-01T19:34:23.231Z,6.83
2023-04-01T19:37:12.970Z,6.83
2023-04-01T19:39:54.777Z,7.07
2023-04-01T19:42:56.946Z,7.36
2023-04-01T19:45:42.480Z,7.81
2023-04-01T19:48:39.414Z,7.62
2023-04-01T19:51:12.505Z,7.78
2023-04-01T19:53:39.267Z,8.07
2023-04-01T19:56:18.026Z,8.13
2023-04-01T19:59:22.369Z,9.02
2023-04-01T20:01:51.361Z,9.07
2023-04-01T20:04:45.704Z,9.17
2023-04-01T20:07:31.313Z,9.92
2023-04-01T20:10:23.296Z,9.70
2023-04-01T20:13:16.060Z,9.74
2023-04-01T20:15:47.731Z,10.48
2023-04-01T20:18:33.743Z,11.00
2023-04-01T20:21:09.757Z,11.29
2023-04-01T20:23:41.954Z,11.58
2023-04-01T20:26:12.483Z,11.44
2023-04-01T20:29:12.906Z,12.32
2023-04-01T20:31:45.873Z,12.24
2023-04-01T20:34:47.678Z,12.15
2023-04-01T20:37:48.376Z,12.42
2023-04-01T20:40:31.616Z,12.19
2023-04-01T20:43:07.104Z,12.40
2023-04-01T20:45:57.657Z,11.93
2023-04-01T20:49:01.403Z,12.22
2023-04-01T20:51:35.716Z,11.88
2023-04-01T20:54:28.845Z,11.86
2023-04-01T20:57:15.492Z,11.97
2023-04-01T20:59:44.809Z,11.73
2023-04-01T21:02:45.628Z,11.29
2023-04-01T21:05:34.095Z,11.53
2023-04-01T21:08:19.697Z,10.84
2023-04-01T21:11:33.817Z,10.81
2023-04-01T21:14:38.122Z,10.40
2023-04-01T21:17:15.517Z,10.26
2023-04-01T21:20:11.127Z,10.49
2023-04-01T21:22:51.841Z,10.64
2023-04-01T21:25:37.250Z,10.44
2023-04-01T21:28:27.525Z,10.74
2023-04-01T21:31:03.129Z,10.74
2023-04-01T21:33:49.076Z,10.03
2023-04-01T21:36:37.326Z,10.31
2023-04-01T21:39:37.686Z,10.21
2023-04-01T21:42:16.472Z,10.86
2023-04-01T21:45:07.997Z,11.24
2023-04-01T21:48:08.043Z,11.21
2023-04-01T21:51:05.647Z,10.76
2023-04-01T21:53:47.714Z,11.62
2023-04-01T21:56:30.735Z,11.04
2023-04-01T21:59:34.402Z,11.31
2023-04-01T22:02:21.562Z,11.43
2023-04-01T22:05:06.371Z,11.25
2023-04-01T22:07:54.417Z,10.99
2023-04-01T22:10:45.346Z,11.82
2023-04-01T22:13:25.954Z,12.23
2023-04-01T22:16:23.059Z,11.76
2023-04-01T22:19:00.178Z,11.77
2023-04-01T22:21:53.034Z,11.13
2023-04-01T22:24:22.439Z,10.95
2023-04-01T22:27:13.112Z,10.78
2023-04-01T22:30:01.451Z,10.72
2023-04-01T22:32:54.141Z,11.45
2023-04-01T22:35:39.555Z,11.31
2023-04-01T22:38:37.393Z,10.91
2023-04-01T22:41:13.950Z,11.43
2023-04-01T22:43:44.281Z,11.37
2023-04-01T22:46:44.826Z,12.07
2023-04-01T22:49:39.113Z,12.27
2023-04-01T22:52:49.386Z,13.14
2023-04-01T22:55:22.404Z,12.80
2023-04-01T22:57:59.211Z,13.70
2023-04-01T23:00:45.638Z,13.74
2023-04-01T23:03:41.278Z,13.97
2023-04-01T23:06:19.928Z,13.44
2023-04-01T23:08:52.621Z,13.98
2023-04-01T23:11:47.330Z,13.77
2023-04-01T23:14:24.858Z,14.11
2023-04-01T23:17:11.047Z,14.34
2023-04-01T23:19:54.905Z,14.44
2023-04-01T23:22:34.590Z,14.58
2023-04-01T23:25:34.220Z,14.84
2023-04-01T23:28:09.363Z,14.67
2023-04-01T23:30:38.989Z,15.02
2023-04-01T23:33:27.379Z,14.90
2023-04-01T23:36:13.494Z,15.07
2023-04-01T23:38:43.320Z,14.92
2023-04-01T23:41:28.885Z,15.72
2023-04-01T23:44:13.736Z,15.75
2023-04-01T23:46:43.687Z,16.49
2023-04-01T23:49:18.484Z,16.29
2023-04-01T23:51:56.885Z,15.75
2023-04-01T23:54:45.720Z,16.63
2023-04-01T23:57:18.792Z,16.37
